Time;durP1;ratioP1;P1;durP2;ratioP2;P2;SDS_P1;SDS_P2;PMS_P1;PMS_P2;Temp;Humidity;BMP_temperature;BMP_pressure;BME280_temperature;BME280_humidity;BME280_pressure;Samples;Min_cycle;Max_cycle;Signal;HPM_P1;HPM_P2
2022/11/21 00:00:54;;;;;;;27.80;13.60;;;2.40;99.90;;;;;;5069335;28;20048;-66
2022/11/21 00:03:20;;;;;;;24.05;12.52;;;2.40;99.90;;;;;;5071106;28;20102;-66
2022/11/21 00:05:48;;;;;;;23.70;12.48;;;2.50;99.90;;;;;;5070387;28;20063;-66
2022/11/21 00:08:16;;;;;;;26.85;12.60;;;2.50;99.90;;;;;;5071037;28;20051;-66
2022/11/21 00:10:42;;;;;;;22.73;13.02;;;2.50;99.90;;;;;;5069510;28;20047;-66
2022/11/21 00:13:12;;;;;;;24.02;12.45;;;2.50;99.90;;;;;;5070566;28;20044;-66
2022/11/21 00:15:38;;;;;;;25.15;13.38;;;2.60;99.90;;;;;;5070796;28;20048;-66
2022/11/21 00:18:04;;;;;;;26.75;13.23;;;2.50;99.90;;;;;;5069553;28;20045;-66
2022/11/21 00:20:30;;;;;;;25.77;13.75;;;2.60;99.90;;;;;;5069338;28;20041;-66
2022/11/21 00:22:55;;;;;;;26.40;13.27;;;2.60;99.90;;;;;;5069110;28;20044;-66
2022/11/21 00:25:21;;;;;;;25.17;12.73;;;2.60;99.90;;;;;;5068650;28;20599;-66
2022/11/21 00:27:47;;;;;;;28.00;13.23;;;2.60;99.90;;;;;;5070841;28;20535;-66
2022/11/21 00:30:13;;;;;;;26.02;13.98;;;2.60;99.90;;;;;;5070939;28;20090;-66
2022/11/21 00:32:38;;;;;;;24.77;13.00;;;2.60;99.90;;;;;;5070414;28;20032;-66
2022/11/21 00:35:05;;;;;;;25.25;14.07;;;2.60;99.90;;;;;;5070609;28;20550;-66
2022/11/21 00:37:33;;;;;;;24.88;12.60;;;2.60;99.90;;;;;;5070906;28;20040;-66
2022/11/21 00:39:59;;;;;;;25.38;13.80;;;2.50;99.90;;;;;;5070568;28;20051;-66
2022/11/21 00:42:25;;;;;;;26.10;13.45;;;2.50;99.90;;;;;;5070336;28;20036;-66
2022/11/21 00:44:51;;;;;;;25.50;12.90;;;2.50;99.90;;;;;;5070015;28;20045;-66
2022/11/21 00:47:16;;;;;;;26.30;14.23;;;2.60;99.90;;;;;;5070668;28;20040;-66
2022/11/21 00:49:42;;;;;;;23.20;13.15;;;2.50;99.90;;;;;;5070473;28;20045;-66
2022/11/21 00:52:08;;;;;;;27.63;13.60;;;2.50;99.90;;;;;;5070604;28;20037;-66
2022/11/21 00:54:33;;;;;;;27.40;12.65;;;2.40;99.90;;;;;;5070193;28;20040;-66
2022/11/21 00:56:59;;;;;;;32.05;13.45;;;2.40;99.90;;;;;;5070620;28;20492;-66
2022/11/21 00:59:24;;;;;;;26.20;12.43;;;2.30;99.90;;;;;;5069019;28;20128;-66
2022/11/21 01:01:50;;;;;;;24.38;12.63;;;2.40;99.90;;;;;;5068866;28;20044;-66
2022/11/21 01:04:15;;;;;;;25.50;12.65;;;2.30;99.90;;;;;;5070246;28;20488;-66
2022/11/21 01:06:41;;;;;;;26.30;13.02;;;2.30;99.90;;;;;;5070359;28;20476;-66
2022/11/21 01:09:06;;;;;;;27.15;13.00;;;2.20;99.90;;;;;;5070350;28;20127;-66
2022/11/21 01:11:32;;;;;;;27.63;14.15;;;2.20;99.90;;;;;;5068797;28;20051;-66
2022/11/21 01:13:58;;;;;;;25.20;13.00;;;2.20;99.90;;;;;;5069854;28;20770;-66
2022/11/21 01:16:25;;;;;;;22.88;12.77;;;2.10;99.90;;;;;;5052016;28;20047;-66
2022/11/21 01:18:51;;;;;;;31.10;13.32;;;2.20;99.90;;;;;;5070389;28;20048;-66
2022/11/21 01:21:27;;;;;;;27.75;13.60;;;2.20;99.90;;;;;;5068996;28;20059;-66
2022/11/21 01:23:53;;;;;;;24.27;13.25;;;2.20;99.90;;;;;;5069754;28;20123;-66
2022/11/21 01:26:22;;;;;;;23.95;14.07;;;2.30;99.90;;;;;;5070290;28;20113;-66
2022/11/21 01:28:48;;;;;;;26.48;13.75;;;2.40;99.90;;;;;;5069886;28;20049;-66
2022/11/21 01:31:21;;;;;;;21.52;13.13;;;2.40;99.90;;;;;;5070320;28;20047;-66
2022/11/21 01:33:47;;;;;;;29.83;13.45;;;2.40;99.90;;;;;;5069728;28;20124;-66
2022/11/21 01:36:21;;;;;;;29.05;14.32;;;2.40;99.90;;;;;;5070793;28;20150;-66
2022/11/21 01:38:48;;;;;;;23.92;13.70;;;2.40;99.90;;;;;;5073718;28;20040;-66
2022/11/21 01:41:18;;;;;;;26.27;13.05;;;2.50;99.90;;;;;;5073467;28;20040;-66
2022/11/21 01:43:43;;;;;;;25.10;12.63;;;2.50;99.90;;;;;;5073328;28;20036;-66
2022/11/21 01:46:12;;;;;;;27.75;12.82;;;2.50;99.90;;;;;;5073618;28;20094;-66
2022/11/21 01:48:44;;;;;;;29.20;13.85;;;2.50;99.90;;;;;;5073482;28;20423;-66
2022/11/21 01:51:17;;;;;;;26.00;13.37;;;2.50;99.90;;;;;;5073182;28;20052;-66
2022/11/21 01:53:48;;;;;;;27.00;13.80;;;2.50;99.90;;;;;;5073336;28;20610;-66
2022/11/21 01:56:14;;;;;;;28.85;13.80;;;2.50;99.90;;;;;;5073414;28;20075;-66
2022/11/21 01:58:40;;;;;;;27.27;12.75;;;2.50;99.90;;;;;;5073072;28;20048;-66
2022/11/21 02:01:06;;;;;;;23.88;13.52;;;2.50;99.90;;;;;;5073034;28;20045;-66
2022/11/21 02:03:36;;;;;;;21.73;12.57;;;2.50;99.90;;;;;;5073251;28;20397;-66
2022/11/21 02:06:01;;;;;;;26.63;14.05;;;2.50;99.90;;;;;;5072842;28;20041;-66
2022/11/21 02:08:28;;;;;;;31.85;14.55;;;2.50;99.90;;;;;;5073026;28;20090;-66
2022/11/21 02:11:11;;;;;;;24.17;12.23;;;2.50;99.90;;;;;;5072868;28;20654;-66
2022/11/21 02:13:37;;;;;;;;;;;2.50;99.90;;;;;;5071933;28;20044;-66
2022/11/21 02:16:02;;;;;;;29.83;14.73;;;2.50;99.90;;;;;;5072533;28;19917;-65
2022/11/21 02:18:28;;;;;;;25.55;12.95;;;2.50;99.90;;;;;;5072855;28;20044;-66
2022/11/21 02:21:16;;;;;;;28.00;13.50;;;2.50;99.90;;;;;;5072620;28;20052;-66
2022/11/21 02:24:09;;;;;;;26.10;13.20;;;2.60;99.90;;;;;;5072665;28;20040;-66
2022/11/21 02:26:34;;;;;;;23.33;12.82;;;2.60;99.90;;;;;;5072957;28;20370;-66
2022/11/21 02:29:00;;;;;;;24.25;12.95;;;2.60;99.90;;;;;;5072845;28;20066;-66
2022/11/21 02:31:25;;;;;;;29.58;14.38;;;2.60;99.90;;;;;;5072790;28;20044;-66
2022/11/21 02:33:51;;;;;;;25.80;14.40;;;2.60;99.90;;;;;;5072306;28;20044;-66
2022/11/21 02:36:36;;;;;;;25.15;13.25;;;2.60;99.90;;;;;;5072819;28;20040;-66
2022/11/21 02:39:04;;;;;;;28.00;13.57;;;2.50;99.90;;;;;;5072627;28;20052;-66
2022/11/21 02:41:31;;;;;;;26.75;12.05;;;2.50;99.90;;;;;;5072331;28;20041;-66
2022/11/21 02:44:12;;;;;;;27.27;13.20;;;2.50;99.90;;;;;;5070490;28;20068;-66
2022/11/21 02:46:46;;;;;;;26.42;13.00;;;2.50;99.90;;;;;;5072447;28;20401;-66
2022/11/21 02:49:12;;;;;;;25.90;13.27;;;2.50;99.90;;;;;;5072345;28;20098;-66
2022/11/21 02:51:38;;;;;;;28.13;14.73;;;2.50;99.90;;;;;;5072457;28;20044;-66
2022/11/21 02:54:03;;;;;;;22.15;12.40;;;2.50;99.90;;;;;;5071725;28;20276;-66
2022/11/21 02:56:29;;;;;;;25.67;13.95;;;2.50;99.90;;;;;;5071915;28;20393;-66
2022/11/21 02:58:54;;;;;;;27.13;14.18;;;2.40;99.90;;;;;;5072024;28;20045;-66
2022/11/21 03:01:20;;;;;;;26.73;13.65;;;2.30;99.90;;;;;;5071965;28;20510;-66
2022/11/21 03:03:45;;;;;;;26.65;13.07;;;2.20;99.90;;;;;;5071809;28;20036;-66
2022/11/21 03:06:11;;;;;;;28.05;13.88;;;2.20;99.90;;;;;;5071804;28;20036;-66
2022/11/21 03:08:36;;;;;;;26.13;12.90;;;2.20;99.90;;;;;;5072055;28;20462;-66
2022/11/21 03:11:02;;;;;;;26.45;13.80;;;2.20;99.90;;;;;;5071539;28;20085;-66
2022/11/21 03:13:27;;;;;;;26.80;12.77;;;2.10;99.90;;;;;;5071741;28;20115;-66
2022/11/21 03:15:54;;;;;;;25.70;13.20;;;2.00;99.90;;;;;;5071494;28;20082;-66
2022/11/21 03:18:19;;;;;;;21.85;13.00;;;1.90;99.90;;;;;;5071778;28;20170;-66
2022/11/21 03:20:45;;;;;;;24.98;12.43;;;1.90;99.90;;;;;;5071711;28;20560;-66
2022/11/21 03:23:10;;;;;;;26.63;12.55;;;1.90;99.90;;;;;;5070101;28;20043;-66
2022/11/21 03:25:36;;;;;;;26.65;13.52;;;1.90;99.90;;;;;;5071190;28;20123;-66
2022/11/21 03:28:01;;;;;;;22.63;12.75;;;1.90;99.90;;;;;;5071261;28;20085;-66
2022/11/21 03:30:27;;;;;;;21.08;11.77;;;1.80;99.90;;;;;;5070142;28;20044;-66
2022/11/21 03:32:57;;;;;;;23.42;12.68;;;1.70;99.90;;;;;;5069922;28;20055;-66
2022/11/21 03:35:23;;;;;;;25.77;13.00;;;1.80;99.90;;;;;;5071313;28;20048;-66
2022/11/21 03:37:48;;;;;;;23.50;12.30;;;1.70;99.90;;;;;;5071189;28;20036;-66
2022/11/21 03:40:14;;;;;;;27.67;13.82;;;1.70;99.90;;;;;;5071176;28;20048;-66
2022/11/21 03:42:39;;;;;;;26.27;13.38;;;1.60;99.90;;;;;;5070976;28;20043;-66
2022/11/21 03:45:05;;;;;;;22.98;12.45;;;1.70;99.90;;;;;;5070823;28;20078;-66
2022/11/21 03:47:31;;;;;;;20.80;11.70;;;1.80;99.90;;;;;;5071216;28;20044;-66
2022/11/21 03:49:57;;;;;;;25.13;13.50;;;1.80;99.90;;;;;;5071343;28;20501;-66
2022/11/21 03:52:22;;;;;;;25.98;13.05;;;1.80;99.90;;;;;;5071242;28;20036;-66
2022/11/21 03:54:48;;;;;;;25.33;12.45;;;1.80;99.90;;;;;;5070880;28;20032;-66
2022/11/21 03:57:13;;;;;;;23.55;13.60;;;1.80;99.90;;;;;;5070056;28;20059;-66
2022/11/21 03:59:39;;;;;;;21.73;12.90;;;1.80;99.90;;;;;;5070118;28;20051;-66
2022/11/21 04:02:04;;;;;;;21.65;12.23;;;1.80;99.90;;;;;;5070608;28;20033;-66
2022/11/21 04:04:30;;;;;;;23.30;11.80;;;1.70;99.90;;;;;;5068983;28;20044;-66
2022/11/21 04:06:55;;;;;;;25.83;12.68;;;1.60;99.90;;;;;;5069534;28;20040;-66
2022/11/21 04:09:21;;;;;;;28.63;13.60;;;1.60;99.90;;;;;;5069496;28;20040;-66
2022/11/21 04:11:46;;;;;;;23.20;12.98;;;1.60;99.90;;;;;;5069392;28;20048;-66
2022/11/21 04:14:12;;;;;;;24.38;13.25;;;1.60;99.90;;;;;;5070598;28;20048;-66
2022/11/21 04:16:37;;;;;;;25.88;12.27;;;1.50;99.90;;;;;;5069503;28;20079;-66
2022/11/21 04:19:03;;;;;;;26.40;12.88;;;1.50;99.90;;;;;;5069856;28;20519;-66
2022/11/21 04:21:29;;;;;;;26.50;13.15;;;1.40;99.90;;;;;;5069534;28;20049;-66
2022/11/21 04:23:54;;;;;;;25.02;13.75;;;1.50;99.90;;;;;;5070417;28;20063;-66
2022/11/21 04:26:20;;;;;;;25.08;12.80;;;1.50;99.90;;;;;;5070787;28;20120;-66
2022/11/21 04:28:45;;;;;;;22.23;11.70;;;1.50;99.90;;;;;;5070970;28;20119;-66
2022/11/21 04:31:11;;;;;;;25.75;12.35;;;1.40;99.90;;;;;;5070730;28;20040;-66
2022/11/21 04:33:37;;;;;;;24.75;13.32;;;1.40;99.90;;;;;;5070729;28;20472;-66
2022/11/21 04:36:03;;;;;;;28.00;13.57;;;1.40;99.90;;;;;;5069027;28;20037;-66
2022/11/21 04:38:29;;;;;;;23.85;12.60;;;1.40;99.90;;;;;;5070348;28;20415;-66
2022/11/21 04:40:54;;;;;;;28.95;13.07;;;1.20;99.90;;;;;;5070812;28;20470;-66
2022/11/21 04:43:20;;;;;;;21.85;12.18;;;1.10;99.90;;;;;;5070852;28;20033;-65
2022/11/21 04:45:45;;;;;;;23.92;12.05;;;1.20;99.90;;;;;;5071007;28;20499;-66
2022/11/21 04:48:11;;;;;;;22.75;12.50;;;1.20;99.90;;;;;;5069390;28;20040;-66
2022/11/21 04:50:36;;;;;;;25.77;12.50;;;1.30;99.90;;;;;;5070990;28;20068;-65
2022/11/21 04:53:02;;;;;;;27.17;12.93;;;1.20;99.90;;;;;;5069693;28;20052;-65
2022/11/21 04:55:30;;;;;;;24.80;13.00;;;1.20;99.90;;;;;;5070942;28;20037;-66
2022/11/21 04:57:55;;;;;;;24.67;12.75;;;1.10;99.90;;;;;;5070508;28;20040;-66
2022/11/21 05:00:21;;;;;;;24.80;12.43;;;1.10;99.90;;;;;;5070425;28;20409;-66
2022/11/21 05:02:47;;;;;;;25.05;13.38;;;1.10;99.90;;;;;;5068994;28;20424;-66
2022/11/21 05:05:12;;;;;;;29.27;13.10;;;1.10;99.90;;;;;;5068692;28;20036;-66
2022/11/21 05:07:38;;;;;;;26.20;12.93;;;1.10;99.90;;;;;;5070362;28;20643;-66
2022/11/21 05:10:08;;;;;;;25.88;13.40;;;1.10;99.90;;;;;;5069271;28;20117;-66
2022/11/21 05:15:18;;;;;;;25.23;13.05;;;1.10;99.90;;;;;;5073630;28;20048;-66
2022/11/21 05:17:44;;;;;;;29.15;14.30;;;1.00;99.90;;;;;;5074150;28;20040;-66
2022/11/21 05:20:10;;;;;;;23.58;13.07;;;1.10;99.90;;;;;;5073984;28;20043;-66
2022/11/21 05:22:35;;;;;;;24.13;12.60;;;1.10;99.90;;;;;;5073840;28;20040;-66
2022/11/21 05:25:01;;;;;;;26.67;13.10;;;1.00;99.90;;;;;;5072277;28;20040;-66
2022/11/21 05:27:27;;;;;;;26.75;13.63;;;1.00;99.90;;;;;;5073654;28;20033;-66
2022/11/21 05:29:53;;;;;;;25.58;13.27;;;1.00;99.90;;;;;;5073730;28;20033;-66
2022/11/21 05:32:19;;;;;;;25.35;13.10;;;1.00;99.90;;;;;;5073732;28;20044;-66
2022/11/21 05:34:44;;;;;;;27.25;13.48;;;1.00;99.90;;;;;;5073566;28;20085;-66
2022/11/21 05:37:10;;;;;;;26.35;13.05;;;1.00;99.90;;;;;;5073786;28;20040;-66
2022/11/21 05:39:35;;;;;;;23.98;12.60;;;1.00;99.90;;;;;;5073788;28;20044;-66
2022/11/21 05:42:01;;;;;;;22.98;12.77;;;1.00;99.90;;;;;;5055575;28;20049;-66
2022/11/21 05:44:26;;;;;;;28.15;12.93;;;0.90;99.90;;;;;;5072973;28;20055;-66
2022/11/21 05:46:52;;;;;;;24.23;12.48;;;0.90;99.90;;;;;;5073547;28;20048;-66
2022/11/21 05:49:17;;;;;;;24.88;13.60;;;0.90;99.90;;;;;;5073294;28;20039;-66
2022/11/21 05:51:43;;;;;;;26.33;13.88;;;0.90;99.90;;;;;;5072074;28;20051;-66
2022/11/21 05:54:12;;;;;;;29.95;13.35;;;0.90;99.90;;;;;;5072846;28;20041;-66
2022/11/21 05:56:38;;;;;;;23.42;12.40;;;0.90;99.90;;;;;;5073549;28;20044;-66
2022/11/21 05:59:03;;;;;;;25.10;13.20;;;0.90;99.90;;;;;;5073140;28;20441;-66
2022/11/21 06:04:13;;;;;;;28.65;12.35;;;1.00;99.90;;;;;;5072694;28;20041;-66
2022/11/21 06:06:40;;;;;;;24.35;13.35;;;0.90;99.90;;;;;;5073221;28;20036;-66
2022/11/21 06:09:06;;;;;;;22.70;12.07;;;0.90;99.90;;;;;;5073358;28;20109;-66
2022/11/21 06:11:31;;;;;;;30.60;13.70;;;0.90;99.90;;;;;;5071561;28;20771;-66
2022/11/21 06:13:57;;;;;;;27.48;13.90;;;0.90;99.90;;;;;;5072705;28;20040;-66
2022/11/21 06:16:22;;;;;;;25.73;13.75;;;0.80;99.90;;;;;;5071433;28;20048;-66
2022/11/21 06:18:51;;;;;;;25.90;12.70;;;0.80;99.90;;;;;;5073069;28;20036;-66
2022/11/21 06:21:16;;;;;;;28.08;13.70;;;0.80;99.90;;;;;;5071265;28;20549;-66
2022/11/21 06:23:42;;;;;;;25.38;13.15;;;0.80;99.90;;;;;;5072056;28;20051;-66
2022/11/21 06:26:12;;;;;;;27.23;13.45;;;0.80;99.90;;;;;;5072847;28;20044;-66
2022/11/21 06:28:39;;;;;;;23.95;12.98;;;0.80;99.90;;;;;;5072591;28;20044;-66
2022/11/21 06:31:10;;;;;;;24.60;12.60;;;0.80;99.90;;;;;;5072539;28;20040;-66
2022/11/21 06:33:36;;;;;;;35.08;16.00;;;0.80;99.90;;;;;;5071088;28;20127;-67
2022/11/21 06:36:14;;;;;;;28.13;13.18;;;0.80;99.90;;;;;;5072223;28;20496;-66
2022/11/21 06:38:39;;;;;;;31.02;13.45;;;0.70;99.90;;;;;;5051287;28;20497;-70
2022/11/21 06:41:09;;;;;;;24.85;12.77;;;0.70;99.90;;;;;;5051032;28;20041;-66
2022/11/21 06:43:35;;;;;;;26.50;14.32;;;0.70;99.90;;;;;;5052040;28;20036;-66
2022/11/21 06:46:02;;;;;;;28.45;15.45;;;0.80;99.90;;;;;;5052331;28;20447;-66
2022/11/21 06:48:29;;;;;;;29.52;14.25;;;0.70;99.90;;;;;;5052184;28;20052;-66
2022/11/21 06:50:54;;;;;;;29.67;14.93;;;0.60;99.90;;;;;;5052570;28;20051;-66
2022/11/21 06:53:20;;;;;;;32.92;15.95;;;0.80;99.90;;;;;;5052142;28;20492;-66
2022/11/21 06:55:46;;;;;;;34.35;16.33;;;0.70;99.90;;;;;;5050387;28;20040;-66
2022/11/21 06:58:11;;;;;;;45.58;21.50;;;0.70;99.90;;;;;;5048737;28;20534;-66
2022/11/21 07:00:37;;;;;;;43.72;21.17;;;0.70;99.90;;;;;;5049795;28;20041;-67
2022/11/21 07:03:03;;;;;;;39.72;18.67;;;0.70;99.90;;;;;;5033146;28;20045;-67
2022/11/21 07:05:30;;;;;;;36.67;16.70;;;0.70;99.90;;;;;;5050515;28;20098;-67
2022/11/21 07:08:02;;;;;;;28.45;14.98;;;0.70;99.90;;;;;;5050934;28;20083;-66
2022/11/21 07:10:29;;;;;;;29.25;14.27;;;0.70;99.90;;;;;;5050727;28;20053;-66
2022/11/21 07:15:44;;;;;;;32.10;15.80;;;0.70;99.90;;;;;;5051378;28;20044;-67
2022/11/21 07:18:09;;;;;;;30.98;16.63;;;0.70;99.90;;;;;;5050439;28;20049;-67
2022/11/21 07:20:35;;;;;;;32.78;15.93;;;0.70;99.90;;;;;;5051397;28;20041;-71
2022/11/21 07:23:01;;;;;;;33.63;16.38;;;0.70;99.90;;;;;;5050202;28;20414;-67
2022/11/21 07:25:26;;;;;;;30.20;15.90;;;0.70;99.90;;;;;;5051623;28;20041;-67
2022/11/21 07:27:52;;;;;;;35.00;16.23;;;0.80;99.90;;;;;;5051389;28;20620;-67
2022/11/21 07:30:17;;;;;;;31.02;16.77;;;0.80;99.90;;;;;;5050316;28;20044;-67
2022/11/21 07:32:43;;;;;;;30.65;15.85;;;0.80;99.90;;;;;;5051130;28;20033;-67
2022/11/21 07:35:09;;;;;;;31.88;15.43;;;0.80;99.90;;;;;;5049784;28;20048;-67
2022/11/21 07:37:38;;;;;;;28.92;14.75;;;0.80;99.90;;;;;;5051236;28;20387;-67
2022/11/21 07:40:04;;;;;;;33.55;16.10;;;0.80;99.90;;;;;;5051628;28;20048;-67
2022/11/21 07:42:32;;;;;;;33.08;16.80;;;0.80;99.90;;;;;;5050943;28;20777;-67
2022/11/21 07:44:57;;;;;;;31.85;16.05;;;0.80;99.90;;;;;;5051230;28;20037;-67
2022/11/21 07:47:23;;;;;;;32.33;15.10;;;0.80;99.90;;;;;;5050122;28;20115;-67
2022/11/21 07:49:48;;;;;;;35.63;15.57;;;0.80;99.90;;;;;;5050007;28;20041;-67
2022/11/21 07:52:14;;;;;;;28.55;15.00;;;0.90;99.90;;;;;;5051240;28;20468;-67
2022/11/21 07:54:39;;;;;;;33.50;14.73;;;0.90;99.90;;;;;;5050681;28;20048;-67
2022/11/21 07:57:05;;;;;;;30.27;14.82;;;0.90;99.90;;;;;;5051244;28;20516;-67
2022/11/21 07:59:30;;;;;;;30.23;15.35;;;0.90;99.90;;;;;;5049767;28;20029;-67
2022/11/21 08:01:56;;;;;;;29.85;15.07;;;0.90;99.90;;;;;;5051018;28;20044;-67
2022/11/21 08:04:22;;;;;;;26.13;14.23;;;0.90;99.90;;;;;;5050735;28;20052;-67
2022/11/21 08:06:48;;;;;;;33.22;15.23;;;0.90;99.90;;;;;;5049655;28;20114;-70
2022/11/21 08:09:14;;;;;;;28.63;14.95;;;1.00;99.90;;;;;;5050819;28;20056;-67
2022/11/21 08:11:39;;;;;;;32.38;16.05;;;1.00;99.90;;;;;;5050982;28;20045;-67
2022/11/21 08:14:05;;;;;;;31.23;16.00;;;0.90;99.90;;;;;;5050690;28;20045;-67
2022/11/21 08:16:31;;;;;;;33.00;16.80;;;0.90;99.90;;;;;;5050860;28;20041;-67
2022/11/21 08:18:58;;;;;;;30.00;15.00;;;0.90;99.90;;;;;;5050829;28;20067;-67
2022/11/21 08:21:23;;;;;;;31.27;15.13;;;0.90;99.90;;;;;;5050471;28;20045;-67
2022/11/21 08:23:49;;;;;;;30.92;14.52;;;0.90;99.90;;;;;;5050476;28;20094;-67
2022/11/21 08:26:15;;;;;;;35.38;14.77;;;0.80;99.90;;;;;;5050518;28;20079;-67
2022/11/21 08:28:41;;;;;;;34.08;15.50;;;0.80;99.90;;;;;;5050968;28;20044;-67
2022/11/21 08:31:06;;;;;;;33.92;15.65;;;0.80;99.90;;;;;;5050802;28;20049;-67
2022/11/21 08:33:32;;;;;;;33.88;15.95;;;0.90;99.90;;;;;;5051563;28;20512;-67
2022/11/21 08:35:58;;;;;;;34.50;15.60;;;0.90;99.90;;;;;;5069803;28;20462;-67
2022/11/21 08:38:23;;;;;;;33.17;15.43;;;1.00;99.90;;;;;;5070413;28;20044;-67
2022/11/21 08:42:01;;;;;;;31.60;15.20;;;0.90;99.90;;;;;;5070431;28;20075;-67
2022/11/21 08:43:37;;;;;;;28.70;14.82;;;1.00;99.90;;;;;;5070167;28;20664;-67
2022/11/21 08:46:03;;;;;;;29.45;14.38;;;1.00;99.90;;;;;;5071277;28;20035;-67
2022/11/21 08:48:28;;;;;;;34.70;15.52;;;1.00;99.90;;;;;;5073910;28;20036;-67
2022/11/21 08:50:56;;;;;;;27.10;14.20;;;1.10;99.90;;;;;;5074685;28;20086;-67
2022/11/21 08:53:22;;;;;;;37.45;16.13;;;1.10;99.90;;;;;;5074561;28;20041;-67
2022/11/21 08:55:47;;;;;;;32.63;14.85;;;1.20;99.90;;;;;;5074219;28;20036;-67
2022/11/21 08:58:13;;;;;;;32.25;13.85;;;1.20;99.90;;;;;;5074055;28;20496;-67
2022/11/21 09:00:38;;;;;;;30.73;15.00;;;1.20;99.90;;;;;;5074280;28;20403;-67
2022/11/21 09:03:04;;;;;;;30.52;13.90;;;1.30;99.90;;;;;;5074087;28;20090;-67
2022/11/21 09:05:30;;;;;;;26.98;11.15;;;1.20;99.90;;;;;;5073950;28;20044;-66
2022/11/21 09:07:56;;;;;;;19.35;11.30;;;1.10;99.90;;;;;;5074000;28;20044;-67
2022/11/21 09:10:23;;;;;;;22.50;11.75;;;1.10;99.90;;;;;;5074037;28;20076;-67
2022/11/21 09:12:48;;;;;;;23.48;11.35;;;1.00;99.90;;;;;;5073849;28;20040;-67
2022/11/21 09:18:03;;;;;;;27.05;12.60;;;1.10;99.90;;;;;;5073750;28;20053;-67
2022/11/21 09:20:32;;;;;;;22.13;11.00;;;1.10;99.90;;;;;;5073797;28;20675;-66
2022/11/21 09:23:13;;;;;;;26.48;12.43;;;1.00;99.90;;;;;;5073766;28;20036;-67
2022/11/21 09:25:39;;;;;;;40.95;14.70;;;1.10;99.90;;;;;;5073656;28;20040;-66
2022/11/21 09:28:06;;;;;;;33.83;15.23;;;1.20;99.90;;;;;;5073115;28;20037;-69
2022/11/21 09:30:33;;;;;;;42.92;14.88;;;1.20;99.90;;;;;;5072401;28;20536;-70
2022/11/21 09:33:11;;;;;;;30.63;13.05;;;1.30;99.90;;;;;;5072607;28;20071;-67
2022/11/21 09:35:37;;;;;;;27.30;12.55;;;1.60;99.90;;;;;;5073113;28;20037;-66
2022/11/21 09:38:03;;;;;;;29.83;13.57;;;1.50;99.90;;;;;;5072381;28;20041;-67
2022/11/21 09:40:30;;;;;;;30.45;14.07;;;1.50;99.90;;;;;;5073574;28;20047;-66
2022/11/21 09:43:05;;;;;;;28.38;14.70;;;1.40;99.90;;;;;;5071924;28;20128;-67
2022/11/21 09:45:43;;;;;;;32.17;13.75;;;1.40;99.90;;;;;;5073579;28;20032;-66
2022/11/21 09:48:18;;;;;;;29.00;13.10;;;1.40;99.90;;;;;;5073476;28;20105;-67
2022/11/21 09:50:47;;;;;;;24.73;13.35;;;1.50;99.90;;;;;;5073505;28;20048;-66
2022/11/21 09:53:25;;;;;;;28.90;13.70;;;1.50;99.90;;;;;;5073134;28;20041;-67
2022/11/21 09:56:06;;;;;;;30.33;14.18;;;1.40;99.90;;;;;;5073317;28;20037;-66
2022/11/21 09:58:40;;;;;;;25.50;13.35;;;1.40;99.90;;;;;;5070815;28;20079;-67
2022/11/21 10:01:09;;;;;;;33.78;14.00;;;1.50;99.90;;;;;;5073468;28;20032;-66
2022/11/21 10:03:42;;;;;;;33.10;14.35;;;1.40;99.90;;;;;;5072932;28;20119;-67
2022/11/21 10:06:28;;;;;;;28.67;13.25;;;1.40;99.90;;;;;;5073303;28;20087;-66
2022/11/21 10:09:13;;;;;;;25.13;12.65;;;1.40;99.90;;;;;;5073140;28;20119;-67
2022/11/21 10:14:50;;;;;;;26.02;12.07;;;1.40;99.90;;;;;;5072765;28;20048;-67
2022/11/21 10:17:42;;;;;;;27.13;12.82;;;1.40;99.90;;;;;;5073092;28;20060;-67
2022/11/21 10:20:30;;;;;;;29.17;13.70;;;1.40;99.90;;;;;;5072855;28;20048;-67
2022/11/21 10:23:23;;;;;;;28.08;13.13;;;1.50;99.90;;;;;;5052919;28;20045;-67
2022/11/21 10:26:02;;;;;;;26.98;13.23;;;1.50;99.90;;;;;;5052576;28;20049;-67
2022/11/21 10:28:36;;;;;;;26.40;13.48;;;1.70;99.90;;;;;;5052813;28;20049;-67
2022/11/21 10:31:02;;;;;;;31.85;14.20;;;1.70;99.90;;;;;;5052848;28;20033;-66
2022/11/21 10:33:32;;;;;;;32.60;13.90;;;1.70;99.90;;;;;;5052750;28;20033;-67
2022/11/21 10:36:04;;;;;;;31.92;14.40;;;1.70;99.90;;;;;;5052365;28;20045;-67
2022/11/21 10:38:36;;;;;;;33.27;14.30;;;1.80;99.90;;;;;;5052763;28;20075;-67
2022/11/21 10:41:09;;;;;;;27.52;14.43;;;1.80;99.90;;;;;;5051201;28;20041;-66
2022/11/21 10:46:21;;;;;;;33.45;15.50;;;2.00;99.90;;;;;;5052837;28;20040;-67
2022/11/21 10:49:03;;;;;;;33.35;15.95;;;2.00;99.90;;;;;;5052460;28;20120;-67
2022/11/21 10:51:41;;;;;;;38.00;16.25;;;2.10;99.90;;;;;;5052224;28;20041;-67
2022/11/21 10:57:00;;;;;;;37.03;16.27;;;2.10;99.90;;;;;;5066790;28;20045;-67
2022/11/21 10:59:27;;;;;;;;;;;2.10;99.90;;;;;;5070834;28;20036;-66
2022/11/21 11:01:58;;;;;;;33.67;14.90;;;2.20;99.90;;;;;;5071383;28;19928;-67
2022/11/21 11:04:29;;;;;;;32.40;15.75;;;2.20;99.90;;;;;;5071175;28;20040;-68
2022/11/21 11:06:55;;;;;;;37.33;15.82;;;2.20;99.90;;;;;;5071753;28;20036;-66
2022/11/21 11:09:34;;;;;;;29.00;14.57;;;2.30;99.90;;;;;;5071440;28;20097;-68
2022/11/21 11:12:24;;;;;;;35.00;15.80;;;2.30;99.90;;;;;;5071446;28;20067;-67
2022/11/21 11:14:55;;;;;;;31.80;15.32;;;2.30;99.90;;;;;;5071503;28;20040;-68
2022/11/21 11:17:32;;;;;;;39.90;16.05;;;2.40;99.90;;;;;;5071444;28;20075;-66
2022/11/21 11:20:37;;;;;;;29.08;13.98;;;2.40;99.90;;;;;;5071721;28;20119;-67
2022/11/21 11:23:25;;;;;;;32.85;15.40;;;2.50;99.90;;;;;;5071206;28;20501;-68
2022/11/21 11:25:58;;;;;;;36.00;16.05;;;2.50;99.90;;;;;;5071143;28;20082;-68
2022/11/21 11:28:25;;;;;;;38.92;17.83;;;2.50;99.90;;;;;;5069568;28;20032;-70
2022/11/21 11:30:54;;;;;;;35.45;17.25;;;2.50;99.90;;;;;;5051576;28;20036;-68
2022/11/21 11:33:51;;;;;;;39.83;17.00;;;2.60;99.90;;;;;;5050914;28;20041;-68
2022/11/21 11:36:37;;;;;;;38.88;17.38;;;2.60;99.90;;;;;;5046487;28;20402;-68
2022/11/21 11:39:19;;;;;;;37.90;17.75;;;2.60;99.90;;;;;;5050926;28;20102;-68
2022/11/21 11:47:58;;;;;;;40.08;16.35;;;2.60;99.90;;;;;;5050765;28;20435;-70
2022/11/21 11:50:40;;;;;;;43.85;18.52;;;2.90;99.90;;;;;;5050762;28;20506;-68
2022/11/21 11:53:14;;;;;;;39.22;17.88;;;2.90;99.90;;;;;;5051082;28;20076;-68
2022/11/21 11:55:51;;;;;;;32.25;16.67;;;2.90;99.90;;;;;;5050674;28;20051;-68
2022/11/21 11:58:46;;;;;;;40.42;17.63;;;2.80;99.90;;;;;;5054194;28;20047;-68
2022/11/21 12:01:20;;;;;;;37.42;16.42;;;2.80;99.90;;;;;;5049422;28;20060;-67
2022/11/21 12:04:00;;;;;;;35.10;16.48;;;2.80;99.90;;;;;;5050792;28;20090;-69
2022/11/21 12:07:05;;;;;;;35.63;15.90;;;2.90;99.90;;;;;;5050743;28;20668;-70
2022/11/21 12:09:33;;;;;;;34.33;16.05;;;3.00;99.90;;;;;;5051219;28;20045;-68
2022/11/21 12:12:22;;;;;;;39.78;16.67;;;3.00;99.90;;;;;;5050679;28;20072;-68
2022/11/21 12:17:55;;;;;;;35.80;16.15;;;3.00;99.90;;;;;;5051026;28;20076;-67
2022/11/21 12:20:26;;;;;;;35.33;16.50;;;3.00;99.90;;;;;;5050274;28;20128;-67
2022/11/21 12:22:52;;;;;;;35.20;16.65;;;3.00;99.90;;;;;;5050852;28;20053;-67
2022/11/21 12:25:24;;;;;;;32.83;14.48;;;3.10;99.90;;;;;;5050660;28;20037;-67
2022/11/21 12:27:53;;;;;;;34.60;15.55;;;3.20;99.90;;;;;;5050487;28;20037;-68
2022/11/21 12:30:49;;;;;;;36.20;15.27;;;3.30;99.90;;;;;;5050650;28;20045;-68
2022/11/21 12:33:22;;;;;;;36.15;15.45;;;3.30;99.90;;;;;;5050611;28;20568;-68
2022/11/21 12:36:25;;;;;;;34.35;15.32;;;3.40;99.90;;;;;;5050396;28;20048;-67
2022/11/21 12:39:24;;;;;;;33.75;14.52;;;3.50;99.90;;;;;;4991878;28;20106;-68
2022/11/21 12:45:02;;;;;;;32.22;14.88;;;3.70;99.90;;;;;;5035188;28;20486;-68
2022/11/21 12:54:29;;;;;;;33.25;15.57;;;3.70;99.90;;;;;;5027080;28;20048;-68
2022/11/21 12:57:03;;;;;;;27.40;13.65;;;3.70;99.90;;;;;;5028535;28;20065;-68
2022/11/21 12:59:35;;;;;;;31.40;14.48;;;3.70;99.90;;;;;;5028125;28;20037;-68
2022/11/21 13:02:23;;;;;;;34.90;15.10;;;3.80;99.90;;;;;;5027995;28;20054;-68
2022/11/21 13:04:50;;;;;;;28.50;13.32;;;3.80;99.90;;;;;;5027598;28;20490;-68
2022/11/21 13:07:17;;;;;;;30.00;13.98;;;3.80;99.90;;;;;;5027958;28;20045;-68
2022/11/21 13:09:48;;;;;;;26.92;13.40;;;3.90;99.90;;;;;;5028022;28;20049;-68
2022/11/21 13:12:36;;;;;;;29.00;13.02;;;3.90;99.90;;;;;;5027916;28;20050;-68
2022/11/21 13:15:11;;;;;;;24.70;12.05;;;3.90;99.90;;;;;;5043923;28;20061;-68
2022/11/21 13:17:49;;;;;;;29.98;13.35;;;3.90;99.90;;;;;;5050368;28;20036;-68
2022/11/21 13:20:31;;;;;;;23.58;11.35;;;4.00;99.90;;;;;;5032342;28;20053;-68
2022/11/21 13:22:58;;;;;;;23.20;11.40;;;4.00;99.90;;;;;;5050414;28;20124;-68
2022/11/21 13:25:38;;;;;;;29.35;11.95;;;4.00;99.90;;;;;;5050108;28;20397;-68
2022/11/21 13:28:10;;;;;;;25.40;12.48;;;4.00;99.90;;;;;;5055164;28;20033;-69